sensor_id;sensor_type;location;lat;lon;timestamp;temperature;humidity
33699;DHT22;20032;52.436;13.312;2022-10-16T00:01:26;15.70;99.90
33699;DHT22;20032;52.436;13.312;2022-10-16T00:03:53;15.80;99.90
33699;DHT22;20032;52.436;13.312;2022-10-16T00:06:20;15.80;99.90
33699;DHT22;20032;52.436;13.312;2022-10-16T00:08:46;15.80;99.90
33699;DHT22;20032;52.436;13.312;2022-10-16T00:11:17;15.80;99.90
33699;DHT22;20032;52.436;13.312;2022-10-16T00:13:44;15.70;99.90
33699;DHT22;20032;52.436;13.312;2022-10-16T00:16:11;15.80;99.90
33699;DHT22;20032;52.436;13.312;2022-10-16T00:18:37;15.80;99.90
33699;DHT22;20032;52.436;13.312;2022-10-16T00:21:05;15.70;99.90
33699;DHT22;20032;52.436;13.312;2022-10-16T00:23:31;15.80;99.90
33699;DHT22;20032;52.436;13.312;2022-10-16T00:26:02;15.80;99.90
33699;DHT22;20032;52.436;13.312;2022-10-16T00:28:28;15.80;99.90
33699;DHT22;20032;52.436;13.312;2022-10-16T00:30:53;15.80;99.90
33699;DHT22;20032;52.436;13.312;2022-10-16T00:33:20;15.80;99.90
33699;DHT22;20032;52.436;13.312;2022-10-16T00:35:45;15.80;99.90
33699;DHT22;20032;52.436;13.312;2022-10-16T00:38:11;15.80;99.90
33699;DHT22;20032;52.436;13.312;2022-10-16T00:40:36;15.80;99.90
33699;DHT22;20032;52.436;13.312;2022-10-16T00:43:02;15.80;99.90
33699;DHT22;20032;52.436;13.312;2022-10-16T00:45:28;15.90;99.90
33699;DHT22;20032;52.436;13.312;2022-10-16T00:47:55;15.90;99.90
33699;DHT22;20032;52.436;13.312;2022-10-16T00:50:30;15.80;99.90
33699;DHT22;20032;52.436;13.312;2022-10-16T00:52:58;15.80;99.90
33699;DHT22;20032;52.436;13.312;2022-10-16T00:55:24;15.80;99.90
33699;DHT22;20032;52.436;13.312;2022-10-16T00:57:51;15.80;99.90
33699;DHT22;20032;52.436;13.312;2022-10-16T01:00:21;15.80;99.90
33699;DHT22;20032;52.436;13.312;2022-10-16T01:02:56;15.80;99.90
33699;DHT22;20032;52.436;13.312;2022-10-16T01:05:23;15.80;99.90
33699;DHT22;20032;52.436;13.312;2022-10-16T01:07:58;15.80;99.90
33699;DHT22;20032;52.436;13.312;2022-10-16T01:10:35;15.80;99.90
33699;DHT22;20032;52.436;13.312;2022-10-16T01:13:07;15.70;99.90
33699;DHT22;20032;52.436;13.312;2022-10-16T01:18:18;15.70;99.90
33699;DHT22;20032;52.436;13.312;2022-10-16T01:20:53;15.70;99.90
33699;DHT22;20032;52.436;13.312;2022-10-16T01:24:40;15.70;99.90
33699;DHT22;20032;52.436;13.312;2022-10-16T01:29:14;15.70;99.90
33699;DHT22;20032;52.436;13.312;2022-10-16T01:31:44;15.70;99.90
33699;DHT22;20032;52.436;13.312;2022-10-16T01:34:20;15.60;99.90
33699;DHT22;20032;52.436;13.312;2022-10-16T01:36:50;15.60;99.90
33699;DHT22;20032;52.436;13.312;2022-10-16T01:39:16;15.60;99.90
33699;DHT22;20032;52.436;13.312;2022-10-16T01:41:51;15.50;99.90
33699;DHT22;20032;52.436;13.312;2022-10-16T01:44:24;15.50;99.90
33699;DHT22;20032;52.436;13.312;2022-10-16T01:46:52;15.50;99.90
33699;DHT22;20032;52.436;13.312;2022-10-16T01:49:18;15.50;99.90
33699;DHT22;20032;52.436;13.312;2022-10-16T01:51:48;15.40;99.90
33699;DHT22;20032;52.436;13.312;2022-10-16T01:54:16;15.40;99.90
33699;DHT22;20032;52.436;13.312;2022-10-16T01:56:43;15.40;99.90
33699;DHT22;20032;52.436;13.312;2022-10-16T01:59:12;15.40;99.90
33699;DHT22;20032;52.436;13.312;2022-10-16T02:01:41;15.40;99.90
33699;DHT22;20032;52.436;13.312;2022-10-16T02:04:17;15.30;99.90
33699;DHT22;20032;52.436;13.312;2022-10-16T02:06:44;15.40;99.90
33699;DHT22;20032;52.436;13.312;2022-10-16T02:09:09;15.40;99.90
33699;DHT22;20032;52.436;13.312;2022-10-16T02:11:35;15.40;99.90
33699;DHT22;20032;52.436;13.312;2022-10-16T02:14:04;15.40;99.90
33699;DHT22;20032;52.436;13.312;2022-10-16T02:16:36;15.40;99.90
33699;DHT22;20032;52.436;13.312;2022-10-16T02:19:04;15.40;99.90
33699;DHT22;20032;52.436;13.312;2022-10-16T02:22:04;15.40;99.90
33699;DHT22;20032;52.436;13.312;2022-10-16T02:24:39;15.40;99.90
33699;DHT22;20032;52.436;13.312;2022-10-16T02:27:24;15.40;99.90
33699;DHT22;20032;52.436;13.312;2022-10-16T02:29:55;15.50;99.90
33699;DHT22;20032;52.436;13.312;2022-10-16T02:32:27;15.50;99.90
33699;DHT22;20032;52.436;13.312;2022-10-16T02:34:56;15.50;99.90
33699;DHT22;20032;52.436;13.312;2022-10-16T02:37:22;15.50;99.90
33699;DHT22;20032;52.436;13.312;2022-10-16T02:39:48;15.50;99.90
33699;DHT22;20032;52.436;13.312;2022-10-16T02:42:15;15.50;99.90
33699;DHT22;20032;52.436;13.312;2022-10-16T02:44:42;15.50;99.90
33699;DHT22;20032;52.436;13.312;2022-10-16T02:47:08;15.50;99.90
33699;DHT22;20032;52.436;13.312;2022-10-16T02:49:33;15.50;99.90
33699;DHT22;20032;52.436;13.312;2022-10-16T02:51:59;15.50;99.90
33699;DHT22;20032;52.436;13.312;2022-10-16T02:54:24;15.50;99.90
33699;DHT22;20032;52.436;13.312;2022-10-16T02:56:49;15.40;99.90
33699;DHT22;20032;52.436;13.312;2022-10-16T02:59:15;15.40;99.90
33699;DHT22;20032;52.436;13.312;2022-10-16T03:01:41;15.40;99.90
33699;DHT22;20032;52.436;13.312;2022-10-16T03:04:06;15.40;99.90
33699;DHT22;20032;52.436;13.312;2022-10-16T03:06:31;15.40;99.90
33699;DHT22;20032;52.436;13.312;2022-10-16T03:08:57;15.30;99.90
33699;DHT22;20032;52.436;13.312;2022-10-16T03:11:22;15.30;99.90
33699;DHT22;20032;52.436;13.312;2022-10-16T03:13:48;15.30;99.90
33699;DHT22;20032;52.436;13.312;2022-10-16T03:16:13;15.30;99.90
33699;DHT22;20032;52.436;13.312;2022-10-16T03:18:39;15.30;99.90
33699;DHT22;20032;52.436;13.312;2022-10-16T03:21:04;15.30;99.90
33699;DHT22;20032;52.436;13.312;2022-10-16T03:23:30;15.20;99.90
33699;DHT22;20032;52.436;13.312;2022-10-16T03:25:55;15.20;99.90
33699;DHT22;20032;52.436;13.312;2022-10-16T03:28:21;15.20;99.90
33699;DHT22;20032;52.436;13.312;2022-10-16T03:30:46;15.20;99.90
33699;DHT22;20032;52.436;13.312;2022-10-16T03:33:12;15.20;99.90
33699;DHT22;20032;52.436;13.312;2022-10-16T03:35:37;15.10;99.90
33699;DHT22;20032;52.436;13.312;2022-10-16T03:38:03;15.10;99.90
33699;DHT22;20032;52.436;13.312;2022-10-16T03:40:28;15.20;99.90
33699;DHT22;20032;52.436;13.312;2022-10-16T03:42:54;15.20;99.90
33699;DHT22;20032;52.436;13.312;2022-10-16T03:45:23;15.20;99.90
33699;DHT22;20032;52.436;13.312;2022-10-16T03:47:48;15.20;99.90
33699;DHT22;20032;52.436;13.312;2022-10-16T03:50:14;15.30;99.90
33699;DHT22;20032;52.436;13.312;2022-10-16T03:52:40;15.30;99.90
33699;DHT22;20032;52.436;13.312;2022-10-16T03:55:06;15.20;99.90
33699;DHT22;20032;52.436;13.312;2022-10-16T03:57:31;15.20;99.90
33699;DHT22;20032;52.436;13.312;2022-10-16T03:59:57;15.10;99.90
33699;DHT22;20032;52.436;13.312;2022-10-16T04:02:22;15.10;99.90
33699;DHT22;20032;52.436;13.312;2022-10-16T04:04:48;15.10;99.90
33699;DHT22;20032;52.436;13.312;2022-10-16T04:07:13;15.00;99.90
33699;DHT22;20032;52.436;13.312;2022-10-16T04:09:39;15.00;99.90
33699;DHT22;20032;52.436;13.312;2022-10-16T04:12:04;15.00;99.90
33699;DHT22;20032;52.436;13.312;2022-10-16T04:14:30;15.10;99.90
33699;DHT22;20032;52.436;13.312;2022-10-16T04:16:55;15.10;99.90
33699;DHT22;20032;52.436;13.312;2022-10-16T04:19:21;15.10;99.90
33699;DHT22;20032;52.436;13.312;2022-10-16T04:21:46;15.10;99.90
33699;DHT22;20032;52.436;13.312;2022-10-16T04:24:12;15.10;99.90
33699;DHT22;20032;52.436;13.312;2022-10-16T04:26:38;15.10;99.90
33699;DHT22;20032;52.436;13.312;2022-10-16T04:29:03;15.10;99.90
33699;DHT22;20032;52.436;13.312;2022-10-16T04:31:29;15.00;99.90
33699;DHT22;20032;52.436;13.312;2022-10-16T04:33:54;15.00;99.90
33699;DHT22;20032;52.436;13.312;2022-10-16T04:36:20;15.00;99.90
33699;DHT22;20032;52.436;13.312;2022-10-16T04:38:45;14.90;99.90
33699;DHT22;20032;52.436;13.312;2022-10-16T04:41:11;14.80;99.90
33699;DHT22;20032;52.436;13.312;2022-10-16T04:43:36;14.80;99.90
33699;DHT22;20032;52.436;13.312;2022-10-16T04:46:02;14.70;99.90
33699;DHT22;20032;52.436;13.312;2022-10-16T04:48:30;14.70;99.90
33699;DHT22;20032;52.436;13.312;2022-10-16T04:50:55;14.70;99.90
33699;DHT22;20032;52.436;13.312;2022-10-16T04:53:21;14.50;99.90
33699;DHT22;20032;52.436;13.312;2022-10-16T04:55:46;14.60;99.90
33699;DHT22;20032;52.436;13.312;2022-10-16T04:58:12;14.70;99.90
33699;DHT22;20032;52.436;13.312;2022-10-16T05:00:37;14.70;99.90
33699;DHT22;20032;52.436;13.312;2022-10-16T05:03:03;14.60;99.90
33699;DHT22;20032;52.436;13.312;2022-10-16T05:05:32;14.60;99.90
33699;DHT22;20032;52.436;13.312;2022-10-16T05:07:58;14.60;99.90
33699;DHT22;20032;52.436;13.312;2022-10-16T05:10:23;14.50;99.90
33699;DHT22;20032;52.436;13.312;2022-10-16T05:12:49;14.40;99.90
33699;DHT22;20032;52.436;13.312;2022-10-16T05:15:15;14.40;99.90
33699;DHT22;20032;52.436;13.312;2022-10-16T05:17:40;14.40;99.90
33699;DHT22;20032;52.436;13.312;2022-10-16T05:20:06;14.30;99.90
33699;DHT22;20032;52.436;13.312;2022-10-16T05:22:32;14.20;99.90
33699;DHT22;20032;52.436;13.312;2022-10-16T05:24:57;14.20;99.90
33699;DHT22;20032;52.436;13.312;2022-10-16T05:27:22;14.30;99.90
33699;DHT22;20032;52.436;13.312;2022-10-16T05:29:48;14.20;99.90
33699;DHT22;20032;52.436;13.312;2022-10-16T05:32:15;14.10;99.90
33699;DHT22;20032;52.436;13.312;2022-10-16T05:34:41;14.10;99.90
33699;DHT22;20032;52.436;13.312;2022-10-16T05:37:07;14.00;99.90
33699;DHT22;20032;52.436;13.312;2022-10-16T05:39:32;14.00;99.90
33699;DHT22;20032;52.436;13.312;2022-10-16T05:41:58;14.00;99.90
33699;DHT22;20032;52.436;13.312;2022-10-16T05:44:23;13.90;99.90
33699;DHT22;20032;52.436;13.312;2022-10-16T05:46:49;14.00;99.90
33699;DHT22;20032;52.436;13.312;2022-10-16T05:49:15;14.10;99.90
33699;DHT22;20032;52.436;13.312;2022-10-16T05:51:40;14.10;99.90
33699;DHT22;20032;52.436;13.312;2022-10-16T05:54:07;14.10;99.90
33699;DHT22;20032;52.436;13.312;2022-10-16T05:56:32;14.20;99.90
33699;DHT22;20032;52.436;13.312;2022-10-16T05:58:58;14.10;99.90
33699;DHT22;20032;52.436;13.312;2022-10-16T06:01:23;14.10;99.90
33699;DHT22;20032;52.436;13.312;2022-10-16T06:03:50;14.10;99.90
33699;DHT22;20032;52.436;13.312;2022-10-16T06:06:19;14.10;99.90
33699;DHT22;20032;52.436;13.312;2022-10-16T06:08:46;14.10;99.90
33699;DHT22;20032;52.436;13.312;2022-10-16T06:11:15;14.10;99.90
33699;DHT22;20032;52.436;13.312;2022-10-16T06:13:41;14.10;99.90
33699;DHT22;20032;52.436;13.312;2022-10-16T06:16:09;14.20;99.90
33699;DHT22;20032;52.436;13.312;2022-10-16T06:18:35;14.20;99.90
33699;DHT22;20032;52.436;13.312;2022-10-16T06:21:08;14.30;99.90
33699;DHT22;20032;52.436;13.312;2022-10-16T06:23:35;14.30;99.90
33699;DHT22;20032;52.436;13.312;2022-10-16T06:26:18;14.40;99.90
33699;DHT22;20032;52.436;13.312;2022-10-16T06:28:44;14.40;99.90
33699;DHT22;20032;52.436;13.312;2022-10-16T06:31:11;14.40;99.90
33699;DHT22;20032;52.436;13.312;2022-10-16T06:33:37;14.40;99.90
33699;DHT22;20032;52.436;13.312;2022-10-16T06:36:07;14.50;99.90
33699;DHT22;20032;52.436;13.312;2022-10-16T06:38:33;14.60;99.90
33699;DHT22;20032;52.436;13.312;2022-10-16T06:40:59;14.60;99.90
33699;DHT22;20032;52.436;13.312;2022-10-16T06:43:25;14.60;99.90
33699;DHT22;20032;52.436;13.312;2022-10-16T06:45:52;14.70;99.90
33699;DHT22;20032;52.436;13.312;2022-10-16T06:48:18;14.80;99.90
33699;DHT22;20032;52.436;13.312;2022-10-16T06:50:43;14.80;99.90
33699;DHT22;20032;52.436;13.312;2022-10-16T06:53:09;14.80;99.90
33699;DHT22;20032;52.436;13.312;2022-10-16T06:55:34;14.80;99.90
33699;DHT22;20032;52.436;13.312;2022-10-16T06:58:00;14.80;99.90
33699;DHT22;20032;52.436;13.312;2022-10-16T07:00:25;14.80;99.90
33699;DHT22;20032;52.436;13.312;2022-10-16T07:02:51;14.90;99.90
33699;DHT22;20032;52.436;13.312;2022-10-16T07:05:16;14.90;99.90
33699;DHT22;20032;52.436;13.312;2022-10-16T07:07:42;15.00;99.90
33699;DHT22;20032;52.436;13.312;2022-10-16T07:10:07;15.00;99.90
33699;DHT22;20032;52.436;13.312;2022-10-16T07:12:33;15.10;99.90
33699;DHT22;20032;52.436;13.312;2022-10-16T07:14:58;15.20;99.90
33699;DHT22;20032;52.436;13.312;2022-10-16T07:17:24;15.20;99.90
33699;DHT22;20032;52.436;13.312;2022-10-16T07:19:50;15.30;99.90
33699;DHT22;20032;52.436;13.312;2022-10-16T07:22:18;15.40;99.90
33699;DHT22;20032;52.436;13.312;2022-10-16T07:24:43;15.40;99.90
33699;DHT22;20032;52.436;13.312;2022-10-16T07:27:09;15.50;99.90
33699;DHT22;20032;52.436;13.312;2022-10-16T07:29:35;15.60;99.90
33699;DHT22;20032;52.436;13.312;2022-10-16T07:32:01;15.70;99.90
33699;DHT22;20032;52.436;13.312;2022-10-16T07:34:27;15.80;99.90
33699;DHT22;20032;52.436;13.312;2022-10-16T07:36:52;15.80;99.90
33699;DHT22;20032;52.436;13.312;2022-10-16T07:39:18;15.90;99.90
33699;DHT22;20032;52.436;13.312;2022-10-16T07:41:43;15.90;99.90
33699;DHT22;20032;52.436;13.312;2022-10-16T07:44:09;15.90;99.90
33699;DHT22;20032;52.436;13.312;2022-10-16T07:46:35;16.00;99.90
33699;DHT22;20032;52.436;13.312;2022-10-16T07:49:02;16.00;99.90
33699;DHT22;20032;52.436;13.312;2022-10-16T07:51:27;16.10;99.90
33699;DHT22;20032;52.436;13.312;2022-10-16T07:53:53;16.10;99.90
33699;DHT22;20032;52.436;13.312;2022-10-16T07:56:20;16.20;99.90
33699;DHT22;20032;52.436;13.312;2022-10-16T07:58:46;16.20;99.90
33699;DHT22;20032;52.436;13.312;2022-10-16T08:01:14;16.20;99.90
33699;DHT22;20032;52.436;13.312;2022-10-16T08:03:44;16.20;99.90
33699;DHT22;20032;52.436;13.312;2022-10-16T08:06:10;16.30;99.90
33699;DHT22;20032;52.436;13.312;2022-10-16T08:08:35;16.30;99.90
33699;DHT22;20032;52.436;13.312;2022-10-16T08:11:01;16.30;99.90
33699;DHT22;20032;52.436;13.312;2022-10-16T08:13:29;16.30;99.90
33699;DHT22;20032;52.436;13.312;2022-10-16T08:15:55;16.30;99.90
33699;DHT22;20032;52.436;13.312;2022-10-16T08:18:21;16.40;99.90
33699;DHT22;20032;52.436;13.312;2022-10-16T08:20:46;16.40;99.90
33699;DHT22;20032;52.436;13.312;2022-10-16T08:23:12;16.50;99.90
33699;DHT22;20032;52.436;13.312;2022-10-16T08:25:40;16.50;99.90
33699;DHT22;20032;52.436;13.312;2022-10-16T08:28:07;16.60;99.90
33699;DHT22;20032;52.436;13.312;2022-10-16T08:30:33;16.60;99.90
33699;DHT22;20032;52.436;13.312;2022-10-16T08:32:59;16.70;99.90
33699;DHT22;20032;52.436;13.312;2022-10-16T08:35:25;16.70;99.90
33699;DHT22;20032;52.436;13.312;2022-10-16T08:37:50;16.80;99.90
33699;DHT22;20032;52.436;13.312;2022-10-16T08:40:26;16.90;99.90
33699;DHT22;20032;52.436;13.312;2022-10-16T08:43:30;16.90;99.90
33699;DHT22;20032;52.436;13.312;2022-10-16T08:47:21;16.90;99.90
33699;DHT22;20032;52.436;13.312;2022-10-16T08:48:53;16.90;99.90
33699;DHT22;20032;52.436;13.312;2022-10-16T08:51:25;16.90;99.90
33699;DHT22;20032;52.436;13.312;2022-10-16T08:53:55;16.90;99.90
33699;DHT22;20032;52.436;13.312;2022-10-16T08:56:21;16.90;99.90
33699;DHT22;20032;52.436;13.312;2022-10-16T08:58:48;17.00;99.90
33699;DHT22;20032;52.436;13.312;2022-10-16T09:01:16;17.00;99.90
33699;DHT22;20032;52.436;13.312;2022-10-16T09:05:02;17.00;99.90
33699;DHT22;20032;52.436;13.312;2022-10-16T09:06:54;17.00;99.90
33699;DHT22;20032;52.436;13.312;2022-10-16T09:12:36;17.30;99.90
33699;DHT22;20032;52.436;13.312;2022-10-16T09:16:34;17.40;99.90
33699;DHT22;20032;52.436;13.312;2022-10-16T09:19:15;17.50;99.90
33699;DHT22;20032;52.436;13.312;2022-10-16T09:21:21;17.60;99.90
33699;DHT22;20032;52.436;13.312;2022-10-16T09:23:48;17.70;99.90
33699;DHT22;20032;52.436;13.312;2022-10-16T09:26:16;17.70;99.90
33699;DHT22;20032;52.436;13.312;2022-10-16T09:28:43;17.70;99.90
33699;DHT22;20032;52.436;13.312;2022-10-16T09:31:19;17.70;99.90
33699;DHT22;20032;52.436;13.312;2022-10-16T09:33:51;17.80;99.90
33699;DHT22;20032;52.436;13.312;2022-10-16T09:36:18;17.80;99.90
33699;DHT22;20032;52.436;13.312;2022-10-16T09:38:44;17.80;99.90
33699;DHT22;20032;52.436;13.312;2022-10-16T09:41:25;17.90;99.90
33699;DHT22;20032;52.436;13.312;2022-10-16T09:43:56;17.90;99.90
33699;DHT22;20032;52.436;13.312;2022-10-16T09:46:37;18.20;99.90
33699;DHT22;20032;52.436;13.312;2022-10-16T09:49:23;18.40;99.90
33699;DHT22;20032;52.436;13.312;2022-10-16T09:51:49;18.40;99.90
33699;DHT22;20032;52.436;13.312;2022-10-16T09:54:18;18.40;99.90
33699;DHT22;20032;52.436;13.312;2022-10-16T09:56:43;18.30;99.90
33699;DHT22;20032;52.436;13.312;2022-10-16T09:59:13;18.30;99.90
33699;DHT22;20032;52.436;13.312;2022-10-16T10:01:50;18.30;99.90
33699;DHT22;20032;52.436;13.312;2022-10-16T10:04:17;18.40;99.90
33699;DHT22;20032;52.436;13.312;2022-10-16T10:06:47;18.60;99.90
33699;DHT22;20032;52.436;13.312;2022-10-16T10:09:32;18.70;99.90
33699;DHT22;20032;52.436;13.312;2022-10-16T10:12:03;18.80;99.90
33699;DHT22;20032;52.436;13.312;2022-10-16T10:14:33;18.80;99.90
33699;DHT22;20032;52.436;13.312;2022-10-16T10:19:47;18.80;99.90
33699;DHT22;20032;52.436;13.312;2022-10-16T10:24:54;18.90;99.90
33699;DHT22;20032;52.436;13.312;2022-10-16T10:27:20;18.90;99.90
33699;DHT22;20032;52.436;13.312;2022-10-16T10:29:59;19.00;99.90
33699;DHT22;20032;52.436;13.312;2022-10-16T10:35:42;19.10;99.90
33699;DHT22;20032;52.436;13.312;2022-10-16T10:38:22;19.10;99.90
33699;DHT22;20032;52.436;13.312;2022-10-16T10:41:08;19.10;99.90
33699;DHT22;20032;52.436;13.312;2022-10-16T10:43:53;19.00;99.90
33699;DHT22;20032;52.436;13.312;2022-10-16T10:46:32;19.10;99.90
33699;DHT22;20032;52.436;13.312;2022-10-16T10:49:24;19.10;99.90
33699;DHT22;20032;52.436;13.312;2022-10-16T10:55:13;19.40;99.90
33699;DHT22;20032;52.436;13.312;2022-10-16T10:58:06;19.70;99.90
33699;DHT22;20032;52.436;13.312;2022-10-16T11:00:55;20.00;99.90
33699;DHT22;20032;52.436;13.312;2022-10-16T11:03:30;19.90;99.90
33699;DHT22;20032;52.436;13.312;2022-10-16T11:06:10;19.70;99.90
33699;DHT22;20032;52.436;13.312;2022-10-16T11:08:48;19.60;99.90
33699;DHT22;20032;52.436;13.312;2022-10-16T11:11:51;19.70;99.90
33699;DHT22;20032;52.436;13.312;2022-10-16T11:14:23;20.10;99.90
33699;DHT22;20032;52.436;13.312;2022-10-16T11:16:52;20.40;99.90
33699;DHT22;20032;52.436;13.312;2022-10-16T11:19:36;20.40;99.90
33699;DHT22;20032;52.436;13.312;2022-10-16T11:22:42;20.60;99.90
33699;DHT22;20032;52.436;13.312;2022-10-16T11:24:59;20.50;99.90
33699;DHT22;20032;52.436;13.312;2022-10-16T11:27:35;20.20;99.90
33699;DHT22;20032;52.436;13.312;2022-10-16T11:30:06;20.20;99.90
33699;DHT22;20032;52.436;13.312;2022-10-16T11:32:52;20.20;99.90
33699;DHT22;20032;52.436;13.312;2022-10-16T11:35:25;20.20;99.90
33699;DHT22;20032;52.436;13.312;2022-10-16T11:37:56;20.30;99.90
33699;DHT22;20032;52.436;13.312;2022-10-16T11:40:29;20.40;99.90
33699;DHT22;20032;52.436;13.312;2022-10-16T11:43:32;20.60;99.90
33699;DHT22;20032;52.436;13.312;2022-10-16T11:45:50;20.70;99.90
33699;DHT22;20032;52.436;13.312;2022-10-16T11:48:27;20.90;99.90
33699;DHT22;20032;52.436;13.312;2022-10-16T11:51:16;21.00;99.90
33699;DHT22;20032;52.436;13.312;2022-10-16T11:56:36;21.20;99.90
33699;DHT22;20032;52.436;13.312;2022-10-16T11:59:08;20.90;99.90
33699;DHT22;20032;52.436;13.312;2022-10-16T12:01:43;20.90;99.90
33699;DHT22;20032;52.436;13.312;2022-10-16T12:04:36;21.00;99.90
33699;DHT22;20032;52.436;13.312;2022-10-16T12:07:14;21.20;99.90
33699;DHT22;20032;52.436;13.312;2022-10-16T12:09:41;21.30;99.90
33699;DHT22;20032;52.436;13.312;2022-10-16T12:12:28;21.40;99.90
33699;DHT22;20032;52.436;13.312;2022-10-16T12:15:35;21.20;99.90
33699;DHT22;20032;52.436;13.312;2022-10-16T12:17:49;21.10;99.90
33699;DHT22;20032;52.436;13.312;2022-10-16T12:20:19;21.20;99.90
33699;DHT22;20032;52.436;13.312;2022-10-16T12:22:51;21.60;99.90
33699;DHT22;20032;52.436;13.312;2022-10-16T12:27:58;23.00;99.90
33699;DHT22;20032;52.436;13.312;2022-10-16T12:30:26;23.70;99.90
33699;DHT22;20032;52.436;13.312;2022-10-16T12:32:55;23.90;99.90
33699;DHT22;20032;52.436;13.312;2022-10-16T12:35:25;24.00;99.90
33699;DHT22;20032;52.436;13.312;2022-10-16T12:37:52;24.10;99.90
33699;DHT22;20032;52.436;13.312;2022-10-16T12:40:27;24.30;99.90
33699;DHT22;20032;52.436;13.312;2022-10-16T12:42:53;24.40;99.90
33699;DHT22;20032;52.436;13.312;2022-10-16T12:47:55;24.20;99.90
33699;DHT22;20032;52.436;13.312;2022-10-16T12:50:33;23.90;99.90
33699;DHT22;20032;52.436;13.312;2022-10-16T12:53:00;23.70;99.90
33699;DHT22;20032;52.436;13.312;2022-10-16T12:55:26;23.50;99.90
33699;DHT22;20032;52.436;13.312;2022-10-16T12:58:22;23.30;99.90
33699;DHT22;20032;52.436;13.312;2022-10-16T13:00:58;23.20;99.90
33699;DHT22;20032;52.436;13.312;2022-10-16T13:06:33;22.70;99.90
33699;DHT22;20032;52.436;13.312;2022-10-16T13:09:21;22.50;99.90
33699;DHT22;20032;52.436;13.312;2022-10-16T13:12:06;22.20;99.90
33699;DHT22;20032;52.436;13.312;2022-10-16T13:17:20;21.90;99.90
33699;DHT22;20032;52.436;13.312;2022-10-16T13:22:53;21.90;99.90
33699;DHT22;20032;52.436;13.312;2022-10-16T13:26:45;21.80;99.90
33699;DHT22;20032;52.436;13.312;2022-10-16T13:28:13;21.50;99.90
33699;DHT22;20032;52.436;13.312;2022-10-16T13:30:43;21.40;99.90
33699;DHT22;20032;52.436;13.312;2022-10-16T13:33:43;21.30;99.90
33699;DHT22;20032;52.436;13.312;2022-10-16T13:35:57;21.20;99.90
33699;DHT22;20032;52.436;13.312;2022-10-16T13:38:24;21.00;99.90
33699;DHT22;20032;52.436;13.312;2022-10-16T13:40:56;21.00;99.90
33699;DHT22;20032;52.436;13.312;2022-10-16T13:43:55;21.00;99.90
33699;DHT22;20032;52.436;13.312;2022-10-16T13:48:40;21.00;99.90
33699;DHT22;20032;52.436;13.312;2022-10-16T13:51:16;21.00;99.90
33699;DHT22;20032;52.436;13.312;2022-10-16T13:53:43;20.90;99.90
33699;DHT22;20032;52.436;13.312;2022-10-16T13:56:13;20.90;99.90
33699;DHT22;20032;52.436;13.312;2022-10-16T13:58:39;21.00;99.90
33699;DHT22;20032;52.436;13.312;2022-10-16T14:01:20;21.10;99.90
33699;DHT22;20032;52.436;13.312;2022-10-16T14:03:48;21.00;99.90
33699;DHT22;20032;52.436;13.312;2022-10-16T14:06:18;20.90;99.90
33699;DHT22;20032;52.436;13.312;2022-10-16T14:08:50;20.80;99.90
33699;DHT22;20032;52.436;13.312;2022-10-16T14:11:21;20.80;99.90
33699;DHT22;20032;52.436;13.312;2022-10-16T14:13:47;20.80;99.90
33699;DHT22;20032;52.436;13.312;2022-10-16T14:16:20;20.70;99.90
33699;DHT22;20032;52.436;13.312;2022-10-16T14:18:50;20.70;99.90
33699;DHT22;20032;52.436;13.312;2022-10-16T14:21:20;20.60;99.90
33699;DHT22;20032;52.436;13.312;2022-10-16T14:23:46;20.70;99.90
33699;DHT22;20032;52.436;13.312;2022-10-16T14:26:14;20.70;99.90
33699;DHT22;20032;52.436;13.312;2022-10-16T14:28:41;20.70;99.90
33699;DHT22;20032;52.436;13.312;2022-10-16T14:31:31;20.80;99.90
33699;DHT22;20032;52.436;13.312;2022-10-16T14:33:57;20.80;99.90
33699;DHT22;20032;52.436;13.312;2022-10-16T14:36:24;20.70;99.90
33699;DHT22;20032;52.436;13.312;2022-10-16T14:41:24;20.60;99.90
33699;DHT22;20032;52.436;13.312;2022-10-16T14:43:52;20.50;99.90
33699;DHT22;20032;52.436;13.312;2022-10-16T14:46:21;20.40;99.90
33699;DHT22;20032;52.436;13.312;2022-10-16T14:48:54;20.40;99.90
33699;DHT22;20032;52.436;13.312;2022-10-16T14:51:20;20.50;99.90
33699;DHT22;20032;52.436;13.312;2022-10-16T14:53:47;20.60;99.90
33699;DHT22;20032;52.436;13.312;2022-10-16T14:56:21;20.80;99.90
33699;DHT22;20032;52.436;13.312;2022-10-16T14:58:50;21.10;99.90
33699;DHT22;20032;52.436;13.312;2022-10-16T15:01:16;21.70;99.90
33699;DHT22;20032;52.436;13.312;2022-10-16T15:03:43;22.20;99.90
33699;DHT22;20032;52.436;13.312;2022-10-16T15:06:11;22.70;99.90
33699;DHT22;20032;52.436;13.312;2022-10-16T15:08:37;22.70;99.90
33699;DHT22;20032;52.436;13.312;2022-10-16T15:11:02;22.50;99.90
33699;DHT22;20032;52.436;13.312;2022-10-16T15:13:28;21.80;99.90
33699;DHT22;20032;52.436;13.312;2022-10-16T15:15:54;21.40;99.90
33699;DHT22;20032;52.436;13.312;2022-10-16T15:18:19;21.00;99.90
33699;DHT22;20032;52.436;13.312;2022-10-16T15:20:49;20.70;99.90
33699;DHT22;20032;52.436;13.312;2022-10-16T15:23:17;20.60;99.90
33699;DHT22;20032;52.436;13.312;2022-10-16T15:25:45;20.40;99.90
33699;DHT22;20032;52.436;13.312;2022-10-16T15:28:12;20.20;99.90
33699;DHT22;20032;52.436;13.312;2022-10-16T15:30:38;20.20;99.90
33699;DHT22;20032;52.436;13.312;2022-10-16T15:33:05;20.10;99.90
33699;DHT22;20032;52.436;13.312;2022-10-16T15:35:30;19.90;99.90
33699;DHT22;20032;52.436;13.312;2022-10-16T15:37:56;19.90;99.90
33699;DHT22;20032;52.436;13.312;2022-10-16T15:40:22;19.70;99.90
33699;DHT22;20032;52.436;13.312;2022-10-16T15:42:48;19.70;99.90
33699;DHT22;20032;52.436;13.312;2022-10-16T15:45:14;19.60;99.90
33699;DHT22;20032;52.436;13.312;2022-10-16T15:47:41;19.20;99.90
33699;DHT22;20032;52.436;13.312;2022-10-16T15:50:10;19.20;99.90
33699;DHT22;20032;52.436;13.312;2022-10-16T15:52:36;19.10;99.90
33699;DHT22;20032;52.436;13.312;2022-10-16T15:55:02;19.20;99.90
33699;DHT22;20032;52.436;13.312;2022-10-16T15:57:28;19.10;99.90
33699;DHT22;20032;52.436;13.312;2022-10-16T15:59:54;19.00;99.90
33699;DHT22;20032;52.436;13.312;2022-10-16T16:02:20;19.00;99.90
33699;DHT22;20032;52.436;13.312;2022-10-16T16:04:45;18.80;99.90
33699;DHT22;20032;52.436;13.312;2022-10-16T16:07:11;18.60;99.90
33699;DHT22;20032;52.436;13.312;2022-10-16T16:09:36;18.50;99.90
33699;DHT22;20032;52.436;13.312;2022-10-16T16:12:02;18.30;99.90
33699;DHT22;20032;52.436;13.312;2022-10-16T16:14:28;18.20;99.90